Time,TemperatureF,DewpointF,PressureIn,WindDirection,WindDirectionDegrees,WindSpeedMPH,WindSpeedGustMPH,Humidity,HourlyPrecipIn,Conditions,Clouds,dailyrainin,SoftwareType,DateUTC
2013-08-26 00:01:00,79.4,75.2,30.16,NNE,13,0.0,0.0,87,0.00,,CLR,0.00,VWS V14.01,2013-08-26 04:01:00,
2013-08-26 00:06:00,79.2,75.0,30.16,NNE,13,0.0,0.0,87,0.00,,CLR,0.00,VWS V14.01,2013-08-26 04:06:00,
2013-08-26 00:11:00,79.1,74.9,30.16,NNE,13,0.0,0.0,87,0.00,,CLR,0.00,VWS V14.01,2013-08-26 04:11:00,
2013-08-26 00:16:00,79.0,75.2,30.15,NNE,13,0.0,0.0,88,0.00,,CLR,0.00,VWS V14.01,2013-08-26 04:16:00,
2013-08-26 00:21:00,79.0,75.2,30.15,NNE,13,0.0,0.0,88,0.00,,CLR,0.00,VWS V14.01,2013-08-26 04:21:00,
2013-08-26 00:26:00,78.9,75.1,30.14,NNE,13,0.0,0.0,88,0.00,,CLR,0.00,VWS V14.01,2013-08-26 04:26:00,
2013-08-26 00:31:00,78.9,75.1,30.14,NNE,13,0.0,1.0,88,0.00,,CLR,0.00,VWS V14.01,2013-08-26 04:31:00,
2013-08-26 00:36:00,79.0,75.2,30.14,North,355,0.0,3.0,88,0.00,,CLR,0.00,VWS V14.01,2013-08-26 04:36:00,
2013-08-26 00:41:00,79.1,75.2,30.14,NNE,13,0.0,4.0,88,0.00,,CLR,0.00,VWS V14.01,2013-08-26 04:41:00,
2013-08-26 00:46:00,79.1,75.6,30.13,NNE,13,0.0,4.0,89,0.00,,CLR,0.00,VWS V14.01,2013-08-26 04:46:00,
2013-08-26 00:51:00,79.2,75.7,30.14,NNE,19,3.0,4.0,89,0.00,,CLR,0.00,VWS V14.01,2013-08-26 04:51:00,
2013-08-26 00:56:00,79.2,75.7,30.14,North,0,0.0,6.0,89,0.00,,CLR,0.00,VWS V14.01,2013-08-26 04:56:00,
2013-08-26 01:01:00,79.3,76.1,30.13,North,0,0.0,0.0,90,0.00,,CLR,0.00,VWS V14.01,2013-08-26 05:01:00,
2013-08-26 01:06:00,79.3,76.1,30.13,North,0,3.0,4.0,90,0.00,,CLR,0.00,VWS V14.01,2013-08-26 05:06:00,
2013-08-26 01:11:00,79.3,76.1,30.13,NNW,340,0.0,5.0,90,0.00,,CLR,0.00,VWS V14.01,2013-08-26 05:11:00,
2013-08-26 01:16:00,79.2,76.3,30.13,NNW,331,0.0,5.0,91,0.00,,CLR,0.00,VWS V14.01,2013-08-26 05:16:00,
2013-08-26 01:21:00,79.2,76.0,30.13,NNW,338,0.0,5.0,90,0.00,,CLR,0.00,VWS V14.01,2013-08-26 05:21:00,
2013-08-26 01:26:00,79.1,76.2,30.12,NNW,336,0.0,5.0,91,0.00,,CLR,0.00,VWS V14.01,2013-08-26 05:26:00,
2013-08-26 01:31:00,79.0,75.5,30.13,North,357,0.0,5.0,89,0.00,,CLR,0.00,VWS V14.01,2013-08-26 05:31:00,
2013-08-26 01:36:00,78.9,75.4,30.12,North,357,0.0,5.0,89,0.00,,CLR,0.00,VWS V14.01,2013-08-26 05:36:00,
2013-08-26 01:41:00,78.9,75.4,30.11,North,357,0.0,5.0,89,0.00,,CLR,0.00,VWS V14.01,2013-08-26 05:41:00,
2013-08-26 01:46:00,78.8,75.3,30.11,North,357,0.0,5.0,89,0.00,,CLR,0.00,VWS V14.01,2013-08-26 05:46:00,
2013-08-26 01:51:00,78.8,75.3,30.12,North,357,0.0,5.0,89,0.00,,CLR,0.00,VWS V14.01,2013-08-26 05:51:00,
2013-08-26 01:56:00,78.7,75.2,30.12,North,357,0.0,5.0,89,0.00,,CLR,0.00,VWS V14.01,2013-08-26 05:56:00,
2013-08-26 02:01:00,78.6,75.4,30.11,North,356,0.0,0.0,90,0.00,,CLR,0.00,VWS V14.01,2013-08-26 06:01:00,
2013-08-26 02:06:00,78.5,75.3,30.11,North,357,0.0,0.0,90,0.00,,CLR,0.00,VWS V14.01,2013-08-26 06:06:00,
2013-08-26 02:11:00,78.6,75.4,30.10,North,357,0.0,0.0,90,0.00,,CLR,0.00,VWS V14.01,2013-08-26 06:11:00,
2013-08-26 02:16:00,78.6,75.4,30.10,North,357,0.0,1.0,90,0.00,,CLR,0.00,VWS V14.01,2013-08-26 06:16:00,
2013-08-26 02:21:00,78.6,75.4,30.11,North,357,0.0,1.0,90,0.00,,CLR,0.00,VWS V14.01,2013-08-26 06:21:00,
2013-08-26 02:26:00,78.6,75.4,30.11,North,356,0.0,1.0,90,0.00,,CLR,0.00,VWS V14.01,2013-08-26 06:26:00,
2013-08-26 02:31:00,78.6,75.8,30.10,North,357,0.0,1.0,91,0.00,,CLR,0.00,VWS V14.01,2013-08-26 06:31:00,
2013-08-26 02:36:00,78.7,75.9,30.10,North,357,0.0,1.0,91,0.00,,CLR,0.00,VWS V14.01,2013-08-26 06:36:00,
2013-08-26 02:41:00,78.7,75.5,30.10,North,357,0.0,1.0,90,0.00,,CLR,0.00,VWS V14.01,2013-08-26 06:41:00,
2013-08-26 02:46:00,78.7,75.9,30.11,North,359,0.0,1.0,91,0.00,,CLR,0.00,VWS V14.01,2013-08-26 06:46:00,
2013-08-26 02:51:00,78.7,75.9,30.10,North,359,0.0,1.0,91,0.00,,CLR,0.00,VWS V14.01,2013-08-26 06:51:00,
2013-08-26 02:56:00,78.7,75.5,30.10,North,359,0.0,1.0,90,0.00,,CLR,0.00,VWS V14.01,2013-08-26 06:56:00,
2013-08-26 03:01:00,78.6,75.4,30.10,North,359,0.0,0.0,90,0.00,,FEW027,0.00,VWS V14.01,2013-08-26 07:01:00,
2013-08-26 03:06:00,78.5,75.3,30.11,North,359,0.0,0.0,90,0.00,,FEW027,0.00,VWS V14.01,2013-08-26 07:06:00,
2013-08-26 03:11:00,78.4,75.2,30.10,North,359,0.0,0.0,90,0.00,,FEW027,0.00,VWS V14.01,2013-08-26 07:11:00,
2013-08-26 03:16:00,78.3,75.1,30.10,North,358,0.0,0.0,90,0.00,,FEW027,0.00,VWS V14.01,2013-08-26 07:16:00,
2013-08-26 03:21:00,78.3,75.5,30.09,North,358,0.0,0.0,91,0.00,,FEW027,0.00,VWS V14.01,2013-08-26 07:21:00,
2013-08-26 03:26:00,78.2,75.4,30.09,North,358,0.0,0.0,91,0.00,,FEW027,0.00,VWS V14.01,2013-08-26 07:26:00,
2013-08-26 03:31:00,78.2,75.0,30.09,North,358,0.0,0.0,90,0.00,,FEW027,0.00,VWS V14.01,2013-08-26 07:31:00,
2013-08-26 03:36:00,78.2,75.0,30.10,North,357,0.0,0.0,90,0.00,,FEW027,0.00,VWS V14.01,2013-08-26 07:36:00,
2013-08-26 03:41:00,78.1,75.3,30.09,North,357,0.0,0.0,91,0.00,,FEW027,0.00,VWS V14.01,2013-08-26 07:41:00,
2013-08-26 03:46:00,78.1,74.9,30.09,North,357,0.0,0.0,90,0.00,,FEW027,0.00,VWS V14.01,2013-08-26 07:46:00,
2013-08-26 03:51:00,78.1,75.3,30.09,North,357,0.0,0.0,91,0.00,,FEW027,0.00,VWS V14.01,2013-08-26 07:51:00,
2013-08-26 03:56:00,78.1,75.3,30.09,North,356,0.0,0.0,91,0.00,,FEW027,0.00,VWS V14.01,2013-08-26 07:56:00,
2013-08-26 04:01:00,78.0,75.2,30.09,North,355,0.0,0.0,91,0.00,,FEW024,0.00,VWS V14.01,2013-08-26 08:01:00,
2013-08-26 04:06:00,78.0,75.2,30.09,North,355,0.0,0.0,91,0.00,,FEW024,0.00,VWS V14.01,2013-08-26 08:06:00,
2013-08-26 04:11:00,78.0,75.2,30.09,North,355,0.0,0.0,91,0.00,,FEW024,0.00,VWS V14.01,2013-08-26 08:11:00,
2013-08-26 04:16:00,77.9,75.1,30.10,NNW,345,0.0,0.0,91,0.00,,FEW024,0.00,VWS V14.01,2013-08-26 08:16:00,
2013-08-26 04:21:00,77.9,75.1,30.09,North,349,0.0,0.0,91,0.00,,FEW024,0.00,VWS V14.01,2013-08-26 08:21:00,
2013-08-26 04:26:00,77.8,74.6,30.09,North,359,0.0,0.0,90,0.00,,FEW024,0.00,VWS V14.01,2013-08-26 08:26:00,
2013-08-26 04:31:00,77.7,74.5,30.09,North,359,0.0,0.0,90,0.00,,FEW024,0.00,VWS V14.01,2013-08-26 08:31:00,
2013-08-26 04:36:00,77.7,74.5,30.09,North,358,0.0,0.0,90,0.00,,FEW024,0.00,VWS V14.01,2013-08-26 08:36:00,
2013-08-26 04:41:00,77.6,74.4,30.09,North,358,0.0,0.0,90,0.00,,FEW024,0.00,VWS V14.01,2013-08-26 08:41:00,
2013-08-26 04:46:00,77.5,74.3,30.09,North,358,0.0,0.0,90,0.00,,FEW024,0.00,VWS V14.01,2013-08-26 08:46:00,
2013-08-26 04:51:00,77.5,74.7,30.09,North,354,0.0,0.0,91,0.00,,FEW024,0.00,VWS V14.01,2013-08-26 08:51:00,
2013-08-26 04:56:00,77.4,74.6,30.09,North,350,0.0,0.0,91,0.00,,FEW024,0.00,VWS V14.01,2013-08-26 08:56:00,
2013-08-26 05:01:00,77.4,74.6,30.09,North,355,0.0,0.0,91,0.00,,CLR,0.00,VWS V14.01,2013-08-26 09:01:00,
2013-08-26 05:06:00,77.3,74.1,30.09,North,355,0.0,0.0,90,0.00,,CLR,0.00,VWS V14.01,2013-08-26 09:06:00,
2013-08-26 05:11:00,77.2,74.0,30.09,North,357,0.0,0.0,90,0.00,,CLR,0.00,VWS V14.01,2013-08-26 09:11:00,
2013-08-26 05:16:00,77.2,74.4,30.09,North,349,0.0,0.0,91,0.00,,CLR,0.00,VWS V14.01,2013-08-26 09:16:00,
2013-08-26 05:21:00,77.1,74.6,30.09,NNW,336,0.0,0.0,92,0.00,,CLR,0.00,VWS V14.01,2013-08-26 09:21:00,
2013-08-26 05:25:00,77.0,74.2,30.09,NNW,348,0.0,1.0,91,0.00,,CLR,0.00,VWS V14.01,2013-08-26 09:25:00,
2013-08-26 05:30:00,76.9,74.1,30.09,NNW,347,0.0,1.0,91,0.00,,CLR,0.00,VWS V14.01,2013-08-26 09:30:00,
2013-08-26 05:35:00,76.8,74.0,30.09,North,353,0.0,1.0,91,0.00,,CLR,0.00,VWS V14.01,2013-08-26 09:35:00,
2013-08-26 05:40:00,76.8,74.0,30.09,North,355,0.0,1.0,91,0.00,,CLR,0.00,VWS V14.01,2013-08-26 09:40:00,
2013-08-26 05:45:00,76.8,74.0,30.09,North,354,0.0,1.0,91,0.00,,CLR,0.00,VWS V14.01,2013-08-26 09:45:00,
2013-08-26 05:50:00,76.8,74.0,30.09,North,351,0.0,1.0,91,0.00,,CLR,0.00,VWS V14.01,2013-08-26 09:50:00,
2013-08-26 05:55:00,76.7,74.2,30.10,NNW,336,0.0,1.0,92,0.00,,CLR,0.00,VWS V14.01,2013-08-26 09:55:00,
2013-08-26 06:00:00,76.6,74.1,30.09,NNW,336,0.0,0.0,92,0.00,,CLR,0.00,VWS V14.01,2013-08-26 10:00:00,
2013-08-26 06:05:00,76.5,73.7,30.09,NNW,346,0.0,0.0,91,0.00,,CLR,0.00,VWS V14.01,2013-08-26 10:05:00,
2013-08-26 06:10:00,76.5,74.0,30.09,NNW,347,0.0,0.0,92,0.00,,CLR,0.00,VWS V14.01,2013-08-26 10:10:00,
2013-08-26 06:15:00,76.5,74.0,30.09,NNW,348,0.0,0.0,92,0.00,,CLR,0.00,VWS V14.01,2013-08-26 10:15:00,
2013-08-26 06:20:00,76.4,73.6,30.09,North,353,0.0,0.0,91,0.00,,CLR,0.00,VWS V14.01,2013-08-26 10:20:00,
2013-08-26 06:25:00,76.4,73.6,30.09,North,353,0.0,0.0,91,0.00,,CLR,0.00,VWS V14.01,2013-08-26 10:25:00,
2013-08-26 06:30:00,76.4,73.6,30.09,North,352,0.0,0.0,91,0.00,,CLR,0.00,VWS V14.01,2013-08-26 10:30:00,
2013-08-26 06:35:00,76.4,73.9,30.09,North,356,0.0,0.0,92,0.00,,CLR,0.00,VWS V14.01,2013-08-26 10:35:00,
2013-08-26 06:40:00,76.4,73.6,30.09,North,357,0.0,0.0,91,0.00,,CLR,0.00,VWS V14.01,2013-08-26 10:40:00,
2013-08-26 06:45:00,76.4,73.6,30.10,North,357,0.0,0.0,91,0.00,,CLR,0.00,VWS V14.01,2013-08-26 10:45:00,
2013-08-26 06:50:00,76.4,73.6,30.10,North,357,0.0,0.0,91,0.00,,CLR,0.00,VWS V14.01,2013-08-26 10:50:00,
2013-08-26 06:55:00,76.4,73.6,30.09,North,358,0.0,0.0,91,0.00,,CLR,0.00,VWS V14.01,2013-08-26 10:55:00,
2013-08-26 07:00:00,76.3,73.5,30.09,North,358,0.0,0.0,91,0.00,,CLR,0.00,VWS V14.01,2013-08-26 11:00:00,
2013-08-26 07:05:00,76.2,73.4,30.09,North,358,0.0,0.0,91,0.00,,CLR,0.00,VWS V14.01,2013-08-26 11:05:00,
2013-08-26 07:10:00,76.2,73.4,30.09,North,358,0.0,0.0,91,0.00,,CLR,0.00,VWS V14.01,2013-08-26 11:10:00,
2013-08-26 07:15:00,76.2,73.7,30.10,North,358,0.0,0.0,92,0.00,,CLR,0.00,VWS V14.01,2013-08-26 11:15:00,
2013-08-26 07:20:00,76.2,73.7,30.10,North,358,0.0,0.0,92,0.00,,CLR,0.00,VWS V14.01,2013-08-26 11:20:00,
2013-08-26 07:25:00,76.2,73.7,30.10,North,358,0.0,0.0,92,0.00,,,0.00,VWS V14.01,2013-08-26 11:25:00,
2013-08-26 07:30:00,76.3,73.8,30.09,North,358,0.0,0.0,92,0.00,,,0.00,VWS V14.01,2013-08-26 11:30:00,
2013-08-26 07:35:00,76.3,73.8,30.09,North,358,0.0,0.0,92,0.00,,,0.00,VWS V14.01,2013-08-26 11:35:00,
2013-08-26 07:40:00,76.4,74.2,30.09,North,358,0.0,0.0,93,0.00,,CLR,0.00,VWS V14.01,2013-08-26 11:40:00,
2013-08-26 07:45:00,76.4,74.2,30.10,North,358,0.0,1.0,93,0.00,,CLR,0.00,VWS V14.01,2013-08-26 11:45:00,
2013-08-26 07:50:00,76.5,74.3,30.10,North,358,0.0,1.0,93,0.00,,CLR,0.00,VWS V14.01,2013-08-26 11:50:00,
2013-08-26 07:55:00,76.7,74.5,30.10,North,358,0.0,1.0,93,0.00,,CLR,0.00,VWS V14.01,2013-08-26 11:55:00,
2013-08-26 08:00:00,76.7,74.5,30.10,North,358,0.0,0.0,93,0.00,,CLR,0.00,VWS V14.01,2013-08-26 12:00:00,
2013-08-26 08:05:00,76.8,74.6,30.11,North,358,0.0,0.0,93,0.00,,CLR,0.00,VWS V14.01,2013-08-26 12:05:00,
2013-08-26 08:10:00,77.0,74.8,30.11,North,358,0.0,0.0,93,0.00,,CLR,0.00,VWS V14.01,2013-08-26 12:10:00,
2013-08-26 08:15:00,77.2,75.3,30.11,North,357,0.0,0.0,94,0.00,,CLR,0.00,VWS V14.01,2013-08-26 12:15:00,
2013-08-26 08:20:00,77.4,76.2,30.10,NW,317,0.0,0.0,96,0.00,,CLR,0.00,VWS V14.01,2013-08-26 12:20:00,
2013-08-26 08:25:00,77.7,75.8,30.10,North,356,0.0,0.0,94,0.00,,CLR,0.00,VWS V14.01,2013-08-26 12:25:00,
2013-08-26 08:30:00,77.9,75.7,30.10,North,356,0.0,0.0,93,0.00,,CLR,0.00,VWS V14.01,2013-08-26 12:30:00,
2013-08-26 08:35:00,78.2,76.0,30.10,North,357,0.0,0.0,93,0.00,,CLR,0.00,VWS V14.01,2013-08-26 12:35:00,
2013-08-26 08:40:00,78.4,76.8,30.09,NNW,338,0.0,0.0,95,0.00,,CLR,0.00,VWS V14.01,2013-08-26 12:40:00,
2013-08-26 08:45:00,78.7,77.2,30.10,NNW,342,0.0,0.0,95,0.00,,CLR,0.00,VWS V14.01,2013-08-26 12:45:00,
2013-08-26 08:50:00,79.1,76.6,30.11,North,354,0.0,0.0,92,0.00,,CLR,0.00,VWS V14.01,2013-08-26 12:50:00,
2013-08-26 08:55:00,79.5,76.3,30.11,North,0,0.0,0.0,90,0.00,,CLR,0.00,VWS V14.01,2013-08-26 12:55:00,
2013-08-26 09:00:00,80.1,76.6,30.11,North,0,0.0,0.0,89,0.00,,CLR,0.00,VWS V14.01,2013-08-26 13:00:00,
2013-08-26 09:05:00,80.7,77.2,30.11,North,359,0.0,0.0,89,0.00,,CLR,0.00,VWS V14.01,2013-08-26 13:05:00,
2013-08-26 09:10:00,81.0,76.1,30.12,NE,37,0.0,5.0,85,0.00,,CLR,0.00,VWS V14.01,2013-08-26 13:10:00,
2013-08-26 09:15:00,81.3,75.7,30.12,North,349,0.0,5.0,83,0.00,,CLR,0.00,VWS V14.01,2013-08-26 13:15:00,
2013-08-26 09:20:00,81.6,75.9,30.11,North,356,0.0,5.0,83,0.00,,CLR,0.00,VWS V14.01,2013-08-26 13:20:00,
2013-08-26 09:25:00,81.8,77.2,30.12,North,0,0.0,5.0,86,0.00,,CLR,0.00,VWS V14.01,2013-08-26 13:25:00,
2013-08-26 09:30:00,82.1,76.1,30.12,North,4,3.0,5.0,82,0.00,,CLR,0.00,VWS V14.01,2013-08-26 13:30:00,
2013-08-26 09:35:00,82.4,76.7,30.12,North,352,1.0,5.0,83,0.00,,CLR,0.00,VWS V14.01,2013-08-26 13:35:00,
2013-08-26 09:40:00,82.4,76.7,30.12,NNE,33,3.0,5.0,83,0.00,,CLR,0.00,VWS V14.01,2013-08-26 13:40:00,
2013-08-26 09:45:00,82.4,76.4,30.12,North,356,2.0,6.0,82,0.00,,CLR,0.00,VWS V14.01,2013-08-26 13:45:00,
2013-08-26 09:50:00,82.3,76.6,30.12,NE,54,0.0,6.0,83,0.00,,CLR,0.00,VWS V14.01,2013-08-26 13:50:00,
2013-08-26 09:55:00,82.3,76.6,30.11,ENE,57,0.0,6.0,83,0.00,,CLR,0.00,VWS V14.01,2013-08-26 13:55:00,
2013-08-26 10:00:00,82.5,75.7,30.12,North,0,3.0,3.0,80,0.00,,BKN024,0.00,VWS V14.01,2013-08-26 14:00:00,
2013-08-26 10:05:00,82.6,76.2,30.11,NE,53,0.0,3.0,81,0.00,,BKN024,0.00,VWS V14.01,2013-08-26 14:05:00,
2013-08-26 10:10:00,82.8,76.0,30.12,NNE,30,0.0,4.0,80,0.00,,BKN024,0.00,VWS V14.01,2013-08-26 14:10:00,
2013-08-26 10:15:00,83.1,76.7,30.12,NE,47,3.0,6.0,81,0.00,,BKN024,0.00,VWS V14.01,2013-08-26 14:15:00,
2013-08-26 10:20:00,83.3,76.9,30.12,NNE,15,0.0,6.0,81,0.00,,BKN024,0.00,VWS V14.01,2013-08-26 14:20:00,
2013-08-26 10:25:00,83.2,76.4,30.12,East,81,5.0,6.0,80,0.00,,BKN024,0.00,VWS V14.01,2013-08-26 14:25:00,
2013-08-26 10:30:00,83.4,77.3,30.12,ENE,77,2.0,7.0,82,0.00,,BKN024,0.00,VWS V14.01,2013-08-26 14:30:00,
2013-08-26 10:35:00,83.8,77.0,30.13,NE,53,5.0,7.0,80,0.00,,BKN024,0.00,VWS V14.01,2013-08-26 14:35:00,
2013-08-26 10:40:00,83.8,76.6,30.12,NNW,345,4.0,7.0,79,0.00,,BKN024,0.00,VWS V14.01,2013-08-26 14:40:00,
2013-08-26 10:45:00,83.8,77.0,30.12,NE,55,0.0,7.0,80,0.00,,BKN024,0.00,VWS V14.01,2013-08-26 14:45:00,
2013-08-26 10:50:00,84.0,76.8,30.12,NE,36,4.0,7.0,79,0.00,,BKN024,0.00,VWS V14.01,2013-08-26 14:50:00,
2013-08-26 10:55:00,83.8,76.6,30.12,North,0,0.0,7.0,79,0.00,,BKN024,0.00,VWS V14.01,2013-08-26 14:55:00,
2013-08-26 11:00:00,83.9,77.1,30.12,NNE,16,4.0,5.0,80,0.00,,BKN028,0.00,VWS V14.01,2013-08-26 15:00:00,
2013-08-26 11:05:00,84.3,77.5,30.12,North,6,2.0,8.0,80,0.00,,BKN028,0.00,VWS V14.01,2013-08-26 15:05:00,
2013-08-26 11:10:00,84.4,78.3,30.12,ENE,57,4.0,9.0,82,0.00,,BKN028,0.00,VWS V14.01,2013-08-26 15:10:00,
2013-08-26 11:15:00,84.7,78.2,30.12,NE,45,4.0,9.0,81,0.00,,BKN028,0.00,VWS V14.01,2013-08-26 15:15:00,
2013-08-26 11:20:00,84.6,78.1,30.12,ENE,75,0.0,9.0,81,0.00,,BKN028,0.00,VWS V14.01,2013-08-26 15:20:00,
2013-08-26 11:25:00,84.6,78.5,30.12,NNE,25,5.0,9.0,82,0.00,,BKN028,0.00,VWS V14.01,2013-08-26 15:25:00,
2013-08-26 11:30:00,84.7,78.6,30.12,WNW,301,0.0,9.0,82,0.00,,BKN028,0.00,VWS V14.01,2013-08-26 15:30:00,
2013-08-26 11:35:00,84.6,77.8,30.12,NE,34,0.0,9.0,80,0.00,,BKN028,0.00,VWS V14.01,2013-08-26 15:35:00,
2013-08-26 11:40:00,84.4,77.9,30.12,NNE,29,5.0,9.0,81,0.00,,BKN028,0.00,VWS V14.01,2013-08-26 15:40:00,
2013-08-26 11:45:00,84.5,76.9,30.12,North,0,4.0,9.0,78,0.00,,BKN028,0.00,VWS V14.01,2013-08-26 15:45:00,
2013-08-26 11:50:00,84.3,78.2,30.12,NNE,21,2.0,9.0,82,0.00,,BKN028,0.00,VWS V14.01,2013-08-26 15:50:00,
2013-08-26 11:55:00,84.3,77.8,30.12,North,2,4.0,9.0,81,0.00,,BKN028,0.00,VWS V14.01,2013-08-26 15:55:00,
2013-08-26 12:00:00,84.5,78.0,30.12,NE,44,0.0,1.0,81,0.00,,BKN028,0.00,VWS V14.01,2013-08-26 16:00:00,
2013-08-26 12:05:00,84.8,79.1,30.12,NE,54,3.0,5.0,83,0.00,,FEW032,0.00,VWS V14.01,2013-08-26 16:05:00,
2013-08-26 12:10:00,85.1,78.2,30.12,East,99,0.0,9.0,80,0.00,,FEW032,0.00,VWS V14.01,2013-08-26 16:10:00,
2013-08-26 12:15:00,85.3,78.4,30.12,ENE,59,3.0,9.0,80,0.00,,FEW032,0.00,VWS V14.01,2013-08-26 16:15:00,
2013-08-26 12:20:00,85.2,78.7,30.11,ENE,77,3.0,9.0,81,0.00,,FEW032,0.00,VWS V14.01,2013-08-26 16:20:00,
2013-08-26 12:25:00,85.2,77.6,30.12,NE,35,4.0,9.0,78,0.00,,FEW032,0.00,VWS V14.01,2013-08-26 16:25:00,
2013-08-26 12:30:00,84.9,77.7,30.12,ENE,63,6.0,9.0,79,0.00,,FEW032,0.00,VWS V14.01,2013-08-26 16:30:00,
2013-08-26 12:35:00,84.8,78.3,30.12,NE,34,6.0,9.0,81,0.00,,FEW032,0.00,VWS V14.01,2013-08-26 16:35:00,
2013-08-26 12:40:00,84.9,84.9,30.12,NNE,31,0.0,9.0,100,0.00,,FEW032,0.00,VWS V14.01,2013-08-26 16:40:00,
2013-08-26 12:45:00,84.8,77.6,30.12,NE,48,3.0,9.0,79,0.00,,FEW032,0.00,VWS V14.01,2013-08-26 16:45:00,
2013-08-26 12:50:00,84.4,77.6,30.12,NE,37,3.0,9.0,80,0.00,,FEW032,0.00,VWS V14.01,2013-08-26 16:50:00,
2013-08-26 12:55:00,84.4,77.6,30.12,NE,41,4.0,10.0,80,0.00,,FEW032,0.00,VWS V14.01,2013-08-26 16:55:00,
2013-08-26 13:00:00,84.4,77.9,30.11,NE,38,2.0,2.0,81,0.00,,CLR,0.00,VWS V14.01,2013-08-26 17:00:00,
2013-08-26 13:05:00,84.4,78.3,30.11,NE,34,6.0,11.0,82,0.00,,CLR,0.00,VWS V14.01,2013-08-26 17:05:00,
2013-08-26 13:10:00,84.7,77.8,30.11,NE,51,0.0,11.0,80,0.00,,CLR,0.00,VWS V14.01,2013-08-26 17:10:00,
2013-08-26 13:15:00,85.0,77.8,30.11,NE,49,5.0,12.0,79,0.00,,CLR,0.00,VWS V14.01,2013-08-26 17:15:00,
2013-08-26 13:20:00,85.0,77.4,30.11,NE,49,6.0,12.0,78,0.00,,CLR,0.00,VWS V14.01,2013-08-26 17:20:00,
2013-08-26 13:25:00,85.2,77.9,30.11,ENE,69,6.0,12.0,79,0.00,,CLR,0.00,VWS V14.01,2013-08-26 17:25:00,
2013-08-26 13:30:00,85.1,78.2,30.11,ENE,74,4.0,12.0,80,0.00,,CLR,0.00,VWS V14.01,2013-08-26 17:30:00,
2013-08-26 13:35:00,85.0,78.1,30.11,NE,49,0.0,12.0,80,0.00,,CLR,0.00,VWS V14.01,2013-08-26 17:35:00,
2013-08-26 13:40:00,85.2,82.6,30.10,NE,46,4.0,12.0,92,0.00,,CLR,0.00,VWS V14.01,2013-08-26 17:40:00,
2013-08-26 13:45:00,84.9,77.7,30.10,NE,56,5.0,12.0,79,0.00,,CLR,0.00,VWS V14.01,2013-08-26 17:45:00,
2013-08-26 13:50:00,84.9,78.8,30.10,NE,50,4.0,12.0,82,0.00,,CLR,0.00,VWS V14.01,2013-08-26 17:50:00,
2013-08-26 13:55:00,85.0,78.5,30.10,NE,52,4.0,12.0,81,0.00,,CLR,0.00,VWS V14.01,2013-08-26 17:55:00,
2013-08-26 14:00:00,84.9,77.7,30.10,NE,42,6.0,9.0,79,0.00,,CLR,0.00,VWS V14.01,2013-08-26 18:00:00,
2013-08-26 14:05:00,84.9,82.7,30.10,ENE,58,9.0,12.0,93,0.00,,CLR,0.00,VWS V14.01,2013-08-26 18:05:00,
2013-08-26 14:10:00,85.1,50.2,30.10,ENE,66,5.0,12.0,30,0.00,,CLR,0.00,VWS V14.01,2013-08-26 18:10:00,
2013-08-26 14:15:00,85.2,78.7,30.10,NE,52,9.0,12.0,81,0.00,,CLR,0.00,VWS V14.01,2013-08-26 18:15:00,
2013-08-26 14:20:00,85.1,77.5,30.10,NE,49,7.0,16.0,78,0.00,,CLR,0.00,VWS V14.01,2013-08-26 18:20:00,
2013-08-26 14:25:00,85.1,77.5,30.10,ENE,71,5.0,16.0,78,0.00,,CLR,0.00,VWS V14.01,2013-08-26 18:25:00,
2013-08-26 14:30:00,85.2,77.2,30.10,NE,41,7.0,16.0,77,0.00,,CLR,0.00,VWS V14.01,2013-08-26 18:30:00,
2013-08-26 14:35:00,85.4,78.2,30.09,NE,42,7.0,16.0,79,0.00,,CLR,0.00,VWS V14.01,2013-08-26 18:35:00,
2013-08-26 14:40:00,85.4,77.4,30.09,ENE,59,9.0,16.0,77,0.00,,CLR,0.00,VWS V14.01,2013-08-26 18:40:00,
2013-08-26 14:45:00,85.3,77.3,30.09,NE,39,10.0,16.0,77,0.00,,CLR,0.00,VWS V14.01,2013-08-26 18:45:00,
2013-08-26 14:50:00,85.2,77.2,30.09,NNE,13,0.0,16.0,77,0.00,,CLR,0.00,VWS V14.01,2013-08-26 18:50:00,
2013-08-26 14:55:00,84.9,76.1,30.09,NE,41,4.0,16.0,75,0.00,,CLR,0.00,VWS V14.01,2013-08-26 18:55:00,
2013-08-26 15:00:00,84.8,77.2,30.08,NE,43,5.0,9.0,78,0.00,,CLR,0.00,VWS V14.01,2013-08-26 19:00:00,
2013-08-26 15:05:00,84.8,76.8,30.08,East,97,5.0,11.0,77,0.00,,CLR,0.00,VWS V14.01,2013-08-26 19:05:00,
2013-08-26 15:10:00,85.0,76.2,30.08,ENE,57,7.0,12.0,75,0.00,,CLR,0.00,VWS V14.01,2013-08-26 19:10:00,
2013-08-26 15:15:00,85.2,76.8,30.07,NE,52,4.0,12.0,76,0.00,,CLR,0.00,VWS V14.01,2013-08-26 19:15:00,
2013-08-26 15:20:00,85.4,77.0,30.07,NE,45,4.0,12.0,76,0.00,,CLR,0.00,VWS V14.01,2013-08-26 19:20:00,
2013-08-26 15:25:00,85.5,77.5,30.06,NNE,20,1.0,12.0,77,0.00,,CLR,0.00,VWS V14.01,2013-08-26 19:25:00,
2013-08-26 15:30:00,85.5,76.7,30.07,NNE,24,4.0,12.0,75,0.00,,CLR,0.00,VWS V14.01,2013-08-26 19:30:00,
2013-08-26 15:35:00,85.3,76.5,30.07,NE,44,5.0,12.0,75,0.00,,CLR,0.00,VWS V14.01,2013-08-26 19:35:00,
2013-08-26 15:40:00,85.5,77.1,30.06,NE,48,10.0,12.0,76,0.00,,CLR,0.00,VWS V14.01,2013-08-26 19:40:00,
2013-08-26 15:45:00,85.4,76.2,30.06,NE,50,9.0,12.0,74,0.00,,CLR,0.00,VWS V14.01,2013-08-26 19:45:00,
2013-08-26 15:50:00,85.2,76.0,30.06,North,9,0.0,13.0,74,0.00,,CLR,0.00,VWS V14.01,2013-08-26 19:50:00,
2013-08-26 15:55:00,85.2,76.4,30.06,NE,38,4.0,13.0,75,0.00,,CLR,0.00,VWS V14.01,2013-08-26 19:55:00,
2013-08-26 16:00:00,85.5,77.1,30.04,NE,38,0.0,3.0,76,0.00,,CLR,0.00,VWS V14.01,2013-08-26 20:00:00,
2013-08-26 16:05:00,85.5,77.5,30.06,NE,49,6.0,11.0,77,0.00,,FEW025,0.00,VWS V14.01,2013-08-26 20:05:00,
2013-08-26 16:10:00,85.1,76.3,30.07,NNE,15,4.0,11.0,75,0.00,,FEW025,0.00,VWS V14.01,2013-08-26 20:10:00,
2013-08-26 16:15:00,85.1,76.3,30.07,NNE,12,6.0,12.0,75,0.00,,FEW025,0.00,VWS V14.01,2013-08-26 20:15:00,
2013-08-26 16:20:00,85.0,75.8,30.06,NE,43,4.0,12.0,74,0.00,,FEW025,0.00,VWS V14.01,2013-08-26 20:20:00,
2013-08-26 16:25:00,85.0,75.0,30.06,NE,52,10.0,12.0,72,0.00,,FEW025,0.00,VWS V14.01,2013-08-26 20:25:00,
2013-08-26 16:30:00,85.0,75.8,30.06,NE,55,4.0,12.0,74,0.00,,FEW025,0.00,VWS V14.01,2013-08-26 20:30:00,
2013-08-26 16:35:00,85.2,75.6,30.06,East,80,5.0,12.0,73,0.00,,FEW025,0.00,VWS V14.01,2013-08-26 20:35:00,
2013-08-26 16:40:00,85.3,76.1,30.06,East,98,4.0,12.0,74,0.00,,FEW025,0.00,VWS V14.01,2013-08-26 20:40:00,
2013-08-26 16:45:00,85.2,76.0,30.05,ENE,63,6.0,12.0,74,0.00,,FEW025,0.00,VWS V14.01,2013-08-26 20:45:00,
2013-08-26 16:50:00,85.1,75.9,30.07,ENE,63,5.0,12.0,74,0.00,,FEW025,0.00,VWS V14.01,2013-08-26 20:50:00,
2013-08-26 16:55:00,85.0,75.4,30.06,ENE,63,6.0,12.0,73,0.00,,BKN025,0.00,VWS V14.01,2013-08-26 20:55:00,
2013-08-26 17:00:00,85.2,75.6,30.06,ENE,62,7.0,7.0,73,0.00,,BKN025,0.00,VWS V14.01,2013-08-26 21:00:00,
2013-08-26 17:05:00,85.2,75.6,30.05,NE,43,4.0,9.0,73,0.00,,SCT025,0.00,VWS V14.01,2013-08-26 21:05:00,
2013-08-26 17:10:00,85.1,75.5,30.06,NE,37,11.0,12.0,73,0.00,,SCT025,0.00,VWS V14.01,2013-08-26 21:10:00,
2013-08-26 17:15:00,84.9,74.9,30.05,NE,53,6.0,12.0,72,0.00,,SCT025,0.00,VWS V14.01,2013-08-26 21:15:00,
2013-08-26 17:20:00,84.7,75.1,30.06,NNE,14,3.0,12.0,73,0.00,,SCT025,0.00,VWS V14.01,2013-08-26 21:20:00,
2013-08-26 17:25:00,84.8,74.8,30.06,NE,45,7.0,12.0,72,0.00,,SCT025,0.00,VWS V14.01,2013-08-26 21:25:00,
2013-08-26 17:30:00,84.7,74.3,30.05,ENE,57,5.0,12.0,71,0.00,,SCT025,0.00,VWS V14.01,2013-08-26 21:30:00,
2013-08-26 17:35:00,84.8,73.9,30.06,ENE,71,6.0,12.0,70,0.00,,SCT025,0.00,VWS V14.01,2013-08-26 21:35:00,
2013-08-26 17:40:00,84.7,74.3,30.06,NE,51,4.0,12.0,71,0.00,,SCT025,0.00,VWS V14.01,2013-08-26 21:40:00,
2013-08-26 17:45:00,84.6,74.2,30.06,NE,48,5.0,12.0,71,0.00,,SCT025,0.00,VWS V14.01,2013-08-26 21:45:00,
2013-08-26 17:50:00,84.6,74.6,30.06,NE,51,9.0,12.0,72,0.00,,SCT025,0.00,VWS V14.01,2013-08-26 21:50:00,
2013-08-26 17:55:00,84.6,74.2,30.06,ESE,117,3.0,12.0,71,0.00,,SCT025,0.00,VWS V14.01,2013-08-26 21:55:00,
2013-08-26 18:00:00,84.6,74.2,30.05,ENE,71,4.0,12.0,71,0.00,,SCT025,0.00,VWS V14.01,2013-08-26 22:00:00,
2013-08-26 18:05:00,84.6,74.2,30.06,ESE,120,3.0,9.0,71,0.00,,CLR,0.00,VWS V14.01,2013-08-26 22:05:00,
2013-08-26 18:10:00,84.4,74.4,30.06,ESE,120,8.0,10.0,72,0.00,,CLR,0.00,VWS V14.01,2013-08-26 22:10:00,
2013-08-26 18:15:00,84.4,74.4,30.06,ESE,103,3.0,10.0,72,0.00,,CLR,0.00,VWS V14.01,2013-08-26 22:15:00,
2013-08-26 18:20:00,84.2,74.2,30.06,East,83,4.0,10.0,72,0.00,,CLR,0.00,VWS V14.01,2013-08-26 22:20:00,
2013-08-26 18:25:00,84.0,74.0,30.07,East,91,6.0,10.0,72,0.00,,CLR,0.00,VWS V14.01,2013-08-26 22:25:00,
2013-08-26 18:30:00,83.8,73.8,30.07,ENE,58,4.0,10.0,72,0.00,,CLR,0.00,VWS V14.01,2013-08-26 22:30:00,
2013-08-26 18:35:00,83.8,73.4,30.07,East,90,3.0,10.0,71,0.00,,CLR,0.00,VWS V14.01,2013-08-26 22:35:00,
2013-08-26 18:40:00,83.8,73.8,30.06,ENE,59,5.0,10.0,72,0.00,,CLR,0.00,VWS V14.01,2013-08-26 22:40:00,
2013-08-26 18:45:00,83.8,73.8,30.06,SE,137,0.0,10.0,72,0.00,,CLR,0.00,VWS V14.01,2013-08-26 22:45:00,
2013-08-26 18:50:00,83.8,74.2,30.06,East,98,5.0,10.0,73,0.00,,CLR,0.00,VWS V14.01,2013-08-26 22:50:00,
2013-08-26 18:55:00,83.8,74.2,30.05,SE,130,5.0,10.0,73,0.00,,CLR,0.00,VWS V14.01,2013-08-26 22:55:00,
2013-08-26 19:00:00,83.8,73.8,30.06,East,80,3.0,10.0,72,0.00,,CLR,0.00,VWS V14.01,2013-08-26 23:00:00,
2013-08-26 19:05:00,83.7,73.7,30.06,ENE,72,3.0,6.0,72,0.00,,CLR,0.00,VWS V14.01,2013-08-26 23:05:00,
2013-08-26 19:10:00,83.4,73.4,30.06,NE,48,1.0,8.0,72,0.00,,CLR,0.00,VWS V14.01,2013-08-26 23:10:00,
2013-08-26 19:15:00,83.3,73.8,30.05,ESE,112,5.0,8.0,73,0.00,,CLR,0.00,VWS V14.01,2013-08-26 23:15:00,
2013-08-26 19:20:00,83.3,74.2,30.06,ESE,118,7.0,11.0,74,0.00,,CLR,0.00,VWS V14.01,2013-08-26 23:20:00,
2013-08-26 19:25:00,83.2,74.5,30.06,ESE,115,5.0,11.0,75,0.00,,CLR,0.00,VWS V14.01,2013-08-26 23:25:00,
2013-08-26 19:30:00,83.1,74.4,30.07,ESE,110,5.0,11.0,75,0.00,,CLR,0.00,VWS V14.01,2013-08-26 23:30:00,
2013-08-26 19:35:00,83.1,74.4,30.06,ESE,115,1.0,11.0,75,0.00,,CLR,0.00,VWS V14.01,2013-08-26 23:35:00,
2013-08-26 19:40:00,83.0,74.7,30.06,ESE,115,3.0,11.0,76,0.00,,CLR,0.00,VWS V14.01,2013-08-26 23:40:00,
2013-08-26 19:45:00,83.0,74.3,30.07,SE,125,3.0,11.0,75,0.00,,CLR,0.00,VWS V14.01,2013-08-26 23:45:00,
2013-08-26 19:50:00,82.9,74.2,30.06,ESE,113,3.0,11.0,75,0.00,,CLR,0.00,VWS V14.01,2013-08-26 23:50:00,
2013-08-26 19:55:00,82.9,74.2,30.07,ESE,117,2.0,11.0,75,0.00,,CLR,0.00,VWS V14.01,2013-08-26 23:55:00,